createdAt,value
2023-03-15T00:00:36.201Z,11.04
2023-03-15T00:03:04.436Z,11.04
2023-03-15T00:05:31.924Z,11.02
2023-03-15T00:07:59.922Z,10.97
2023-03-15T00:10:26.164Z,10.93
2023-03-15T00:12:53.417Z,10.85
2023-03-15T00:18:11.930Z,10.60
2023-03-15T00:20:39.086Z,10.43
2023-03-15T00:23:14.186Z,10.29
2023-03-15T00:25:40.569Z,10.13
2023-03-15T00:28:06.821Z,9.95
2023-03-15T00:30:33.065Z,9.81
2023-03-15T00:32:59.334Z,9.65
2023-03-15T00:35:25.722Z,9.52
2023-03-15T00:37:56.084Z,9.41
2023-03-15T00:40:23.271Z,9.32
2023-03-15T00:42:52.101Z,9.25
2023-03-15T00:45:19.620Z,9.19
2023-03-15T00:47:48.725Z,9.15
2023-03-15T00:50:15.156Z,9.13
2023-03-15T00:52:43.086Z,9.12
2023-03-15T00:55:13.385Z,9.13
2023-03-15T00:57:40.654Z,9.13
2023-03-15T01:00:09.715Z,9.15
2023-03-15T01:02:37.533Z,9.15
2023-03-15T01:05:06.380Z,9.15
2023-03-15T01:07:35.620Z,9.16
2023-03-15T01:10:02.539Z,9.17
2023-03-15T01:12:29.444Z,9.17
2023-03-15T01:14:55.932Z,9.18
2023-03-15T01:17:25.594Z,9.18
2023-03-15T01:19:53.101Z,9.19
2023-03-15T01:22:20.233Z,9.20
2023-03-15T01:24:50.786Z,9.21
2023-03-15T01:27:19.757Z,9.22
2023-03-15T01:29:46.095Z,9.25
2023-03-15T01:32:12.394Z,9.26
2023-03-15T01:34:38.790Z,9.29
2023-03-15T01:37:07.463Z,9.30
2023-03-15T01:39:34.032Z,9.33
2023-03-15T01:42:00.352Z,9.35
2023-03-15T01:44:49.308Z,9.36
2023-03-15T01:47:17.467Z,9.40
2023-03-15T01:49:49.230Z,9.43
2023-03-15T01:52:17.406Z,9.46
2023-03-15T01:54:49.585Z,9.47
2023-03-15T01:57:22.734Z,9.49
2023-03-15T01:59:56.614Z,9.51
2023-03-15T02:02:24.564Z,9.52
2023-03-15T02:05:12.493Z,9.57
2023-03-15T02:07:51.748Z,9.58
2023-03-15T02:10:35.559Z,9.59
2023-03-15T02:13:02.476Z,9.60
2023-03-15T02:15:29.014Z,9.62
2023-03-15T02:17:55.336Z,9.61
2023-03-15T02:20:27.631Z,9.62
2023-03-15T02:23:00.198Z,9.63
2023-03-15T02:25:46.426Z,9.65
2023-03-15T02:28:14.617Z,9.67
2023-03-15T02:30:41.116Z,9.69
2023-03-15T02:33:11.399Z,9.71
2023-03-15T02:35:37.730Z,9.72
2023-03-15T02:38:05.017Z,9.73
2023-03-15T02:40:32.484Z,9.74
2023-03-15T02:43:05.789Z,9.74
2023-03-15T02:45:38.006Z,9.75
2023-03-15T02:48:05.905Z,9.74
2023-03-15T02:50:32.534Z,9.75
2023-03-15T02:53:06.674Z,9.75
2023-03-15T02:55:33.479Z,9.76
2023-03-15T02:58:06.950Z,9.78
2023-03-15T03:00:34.997Z,9.74
2023-03-15T03:03:02.450Z,9.81
2023-03-15T03:05:28.780Z,9.79
2023-03-15T03:07:55.092Z,9.81
2023-03-15T03:10:21.733Z,9.82
2023-03-15T03:12:54.736Z,9.82
2023-03-15T03:15:21.520Z,9.82
2023-03-15T03:17:51.319Z,9.83
2023-03-15T03:20:20.698Z,9.84
2023-03-15T03:22:47.045Z,9.85
2023-03-15T03:25:13.515Z,9.87
2023-03-15T03:27:40.664Z,9.91
2023-03-15T03:30:08.385Z,9.88
2023-03-15T03:32:35.449Z,9.87
2023-03-15T03:35:03.487Z,9.87
2023-03-15T03:37:30.808Z,9.86
2023-03-15T03:39:57.811Z,9.85
2023-03-15T03:42:24.055Z,9.85
2023-03-15T03:44:50.742Z,9.85
2023-03-15T03:47:17.038Z,9.83
2023-03-15T03:49:43.350Z,9.82
2023-03-15T03:52:09.659Z,9.83
2023-03-15T03:54:35.937Z,9.82
2023-03-15T03:57:02.253Z,9.83
2023-03-15T03:59:28.758Z,9.83
2023-03-15T04:01:55.266Z,9.85
2023-03-15T04:04:21.700Z,9.86
2023-03-15T04:06:48.057Z,9.85
2023-03-15T04:09:15.149Z,9.85
2023-03-15T04:11:42.637Z,9.84
2023-03-15T04:14:13.063Z,9.82
2023-03-15T04:16:43.101Z,9.78
2023-03-15T04:19:09.417Z,9.76
2023-03-15T04:21:35.759Z,9.75
2023-03-15T04:24:02.238Z,9.74
2023-03-15T04:26:29.035Z,9.75
2023-03-15T04:28:59.565Z,9.76
2023-03-15T04:31:29.611Z,9.78
2023-03-15T04:33:56.153Z,9.78
2023-03-15T04:36:22.909Z,9.82
2023-03-15T04:38:50.052Z,9.82
2023-03-15T04:41:16.926Z,9.85
2023-03-15T04:43:43.856Z,9.85
2023-03-15T04:46:10.336Z,9.85
2023-03-15T04:48:37.312Z,9.87
2023-03-15T04:51:04.075Z,9.87
2023-03-15T04:53:30.750Z,9.88
2023-03-15T04:55:57.224Z,9.91
2023-03-15T04:58:23.484Z,9.92
2023-03-15T05:00:49.833Z,9.92
2023-03-15T05:03:16.347Z,9.95
2023-03-15T05:05:45.324Z,9.96
2023-03-15T05:08:11.676Z,9.97
2023-03-15T05:10:38.895Z,9.97
2023-03-15T05:13:05.167Z,9.98
2023-03-15T05:15:31.804Z,9.99
2023-03-15T05:17:58.294Z,9.99
2023-03-15T05:20:25.201Z,9.99
2023-03-15T05:22:53.423Z,10.00
2023-03-15T05:25:19.671Z,10.00
2023-03-15T05:27:46.636Z,9.99
2023-03-15T05:30:15.399Z,9.97
2023-03-15T05:32:44.670Z,9.98
2023-03-15T05:35:11.615Z,9.97
2023-03-15T05:37:38.258Z,9.96
2023-03-15T05:40:08.089Z,9.94
2023-03-15T05:42:35.847Z,9.92
2023-03-15T05:45:02.212Z,9.90
2023-03-15T05:47:28.731Z,9.89
2023-03-15T05:49:54.986Z,9.87
2023-03-15T05:52:21.269Z,9.86
2023-03-15T05:54:47.527Z,9.85
2023-03-15T05:57:14.030Z,9.85
2023-03-15T05:59:40.336Z,9.84
2023-03-15T06:02:08.117Z,9.85
2023-03-15T06:04:34.713Z,9.84
2023-03-15T06:07:01.183Z,9.83
2023-03-15T06:09:30.481Z,9.82
2023-03-15T06:11:57.449Z,9.84
2023-03-15T06:14:23.786Z,9.84
2023-03-15T06:16:50.475Z,9.85
2023-03-15T06:19:16.912Z,9.86
2023-03-15T06:21:44.471Z,9.86
2023-03-15T06:24:10.741Z,9.86
2023-03-15T06:26:37.007Z,9.88
2023-03-15T06:29:03.263Z,9.89
2023-03-15T06:31:31.745Z,9.90
2023-03-15T06:34:01.181Z,9.91
2023-03-15T06:36:29.851Z,9.93
2023-03-15T06:38:56.199Z,9.95
2023-03-15T06:41:22.541Z,9.97
2023-03-15T06:43:49.294Z,10.00
2023-03-15T06:46:16.677Z,10.01
2023-03-15T06:48:44.332Z,10.02
2023-03-15T06:51:10.720Z,10.07
2023-03-15T06:53:38.197Z,10.10
2023-03-15T06:56:04.801Z,10.11
2023-03-15T06:58:36.269Z,10.13
2023-03-15T07:01:03.144Z,10.13
2023-03-15T07:03:37.529Z,10.15
2023-03-15T07:06:07.391Z,10.17
2023-03-15T07:08:34.077Z,10.16
2023-03-15T07:11:00.650Z,10.16
2023-03-15T07:13:26.949Z,10.17
2023-03-15T07:15:56.877Z,10.17
2023-03-15T07:18:23.250Z,10.15
2023-03-15T07:20:58.918Z,10.16
2023-03-15T07:23:25.234Z,10.16
2023-03-15T07:25:55.522Z,10.18
2023-03-15T07:28:26.619Z,10.20
2023-03-15T07:30:57.058Z,10.22
2023-03-15T07:33:24.342Z,10.22
2023-03-15T07:35:51.566Z,10.26
2023-03-15T07:38:22.037Z,10.27
2023-03-15T07:40:49.627Z,10.31
2023-03-15T07:43:16.593Z,10.33
2023-03-15T07:45:49.393Z,10.37
2023-03-15T07:48:15.878Z,10.42
2023-03-15T07:50:49.517Z,10.45
2023-03-15T07:53:17.898Z,10.48
2023-03-15T07:55:47.985Z,10.52
2023-03-15T08:00:56.923Z,10.64
2023-03-15T08:03:25.308Z,10.73
2023-03-15T08:05:51.634Z,10.84
2023-03-15T08:08:20.754Z,10.93
2023-03-15T08:10:47.124Z,11.03
2023-03-15T08:13:13.625Z,11.11
2023-03-15T08:15:42.304Z,11.19
2023-03-15T08:18:08.734Z,11.26
2023-03-15T08:20:35.150Z,11.31
2023-03-15T08:23:02.223Z,11.35
2023-03-15T08:25:28.945Z,11.36
2023-03-15T08:27:55.613Z,11.37
2023-03-15T08:30:22.513Z,11.38
2023-03-15T08:32:50.453Z,11.40
2023-03-15T08:35:17.331Z,11.40
2023-03-15T08:37:48.161Z,11.43
2023-03-15T08:40:18.960Z,11.46
2023-03-15T08:42:45.870Z,11.52
2023-03-15T08:45:12.906Z,11.56
2023-03-15T08:47:39.307Z,11.63
2023-03-15T08:50:09.133Z,11.70
2023-03-15T08:52:35.637Z,11.76
2023-03-15T08:55:03.001Z,11.85
2023-03-15T08:57:29.677Z,11.95
2023-03-15T08:59:56.101Z,12.04
2023-03-15T09:02:23.451Z,12.16
2023-03-15T09:04:53.805Z,12.27
2023-03-15T09:07:21.658Z,12.39
2023-03-15T09:09:48.620Z,12.48
2023-03-15T09:12:19.025Z,12.53
2023-03-15T09:14:45.265Z,12.55
2023-03-15T09:17:12.391Z,12.56
2023-03-15T09:19:40.903Z,12.56
2023-03-15T09:22:16.296Z,12.57
2023-03-15T09:24:50.475Z,12.59
2023-03-15T09:27:18.757Z,12.60
2023-03-15T09:29:45.264Z,12.61
2023-03-15T09:32:11.971Z,12.61
2023-03-15T09:34:41.831Z,12.60
2023-03-15T09:37:14.986Z,12.60
2023-03-15T09:39:41.493Z,12.63
2023-03-15T09:42:14.663Z,12.67
2023-03-15T09:44:46.307Z,12.74
2023-03-15T09:47:20.601Z,12.79
2023-03-15T09:49:53.971Z,12.85
2023-03-15T09:52:32.350Z,12.91
2023-03-15T09:55:21.782Z,12.96
2023-03-15T09:57:57.502Z,12.97
2023-03-15T10:00:46.466Z,12.96
2023-03-15T10:03:23.138Z,12.95
2023-03-15T10:05:55.537Z,12.93
2023-03-15T10:08:23.502Z,12.91
2023-03-15T10:10:57.065Z,12.89
2023-03-15T10:13:46.669Z,12.88
2023-03-15T10:16:21.769Z,12.85
2023-03-15T10:19:04.682Z,12.88
2023-03-15T10:21:38.802Z,12.92
2023-03-15T10:24:09.418Z,12.98
2023-03-15T10:26:37.422Z,13.04
2023-03-15T10:29:09.364Z,13.11
2023-03-15T10:31:44.536Z,13.21
2023-03-15T10:34:13.309Z,13.28
2023-03-15T10:36:50.898Z,13.37
2023-03-15T10:39:17.451Z,13.43
2023-03-15T10:41:45.316Z,13.46
2023-03-15T10:44:13.698Z,13.46
2023-03-15T10:46:40.151Z,13.47
2023-03-15T10:49:10.605Z,13.48
2023-03-15T10:51:43.203Z,13.48
2023-03-15T10:54:14.996Z,13.49
2023-03-15T10:56:46.925Z,13.51
2023-03-15T10:59:18.654Z,13.53
2023-03-15T11:01:54.636Z,13.54
2023-03-15T11:04:27.628Z,13.56
2023-03-15T11:07:02.956Z,13.57
2023-03-15T11:09:39.708Z,13.57
2023-03-15T11:12:07.310Z,13.56
2023-03-15T11:14:35.209Z,13.56
2023-03-15T11:17:03.567Z,13.55
2023-03-15T11:19:31.593Z,13.53
2023-03-15T11:21:59.801Z,13.52
2023-03-15T11:24:27.788Z,13.51
2023-03-15T11:26:56.019Z,13.51
2023-03-15T11:29:32.714Z,13.52
2023-03-15T11:32:00.811Z,13.54
2023-03-15T11:34:39.136Z,13.54
2023-03-15T11:37:12.131Z,13.56
2023-03-15T11:39:45.581Z,13.58
2023-03-15T11:42:15.992Z,13.62
2023-03-15T11:44:47.580Z,13.66
2023-03-15T11:47:32.576Z,13.69
2023-03-15T11:49:59.332Z,13.75
2023-03-15T11:52:27.235Z,13.81
2023-03-15T11:55:00.931Z,13.87
2023-03-15T11:57:33.435Z,13.94
2023-03-15T12:00:19.852Z,13.96
2023-03-15T12:02:51.044Z,13.95
2023-03-15T12:05:36.106Z,13.94
2023-03-15T12:08:20.411Z,13.94
2023-03-15T12:10:47.871Z,13.91
2023-03-15T12:13:18.964Z,13.92
2023-03-15T12:15:47.660Z,13.91
2023-03-15T12:18:16.484Z,13.92
2023-03-15T12:20:48.507Z,13.93
2023-03-15T12:23:21.467Z,13.95
2023-03-15T12:25:55.583Z,13.99
2023-03-15T12:28:45.321Z,14.04
2023-03-15T12:31:16.982Z,14.05
2023-03-15T12:33:45.523Z,14.11
2023-03-15T12:36:18.945Z,14.16
2023-03-15T12:38:53.628Z,14.18
2023-03-15T12:41:35.341Z,14.22
2023-03-15T12:44:20.292Z,14.25
2023-03-15T12:46:46.857Z,14.29
2023-03-15T12:49:23.771Z,14.31
2023-03-15T12:52:01.361Z,14.35
2023-03-15T12:54:50.046Z,14.37
2023-03-15T12:57:39.718Z,14.40
2023-03-15T13:00:15.528Z,14.46
2023-03-15T13:02:46.753Z,14.50
2023-03-15T13:05:16.590Z,14.54
2023-03-15T13:07:52.612Z,14.59
2023-03-15T13:10:22.037Z,14.67
2023-03-15T13:13:06.728Z,14.74
2023-03-15T13:15:43.991Z,14.84
2023-03-15T13:18:24.133Z,14.93
2023-03-15T13:20:50.343Z,14.98
2023-03-15T13:23:18.616Z,15.02
2023-03-15T13:25:52.516Z,15.02
2023-03-15T13:28:23.510Z,15.01
2023-03-15T13:30:52.457Z,14.99
2023-03-15T13:33:30.060Z,15.00
2023-03-15T13:35:58.601Z,15.00
2023-03-15T13:38:29.609Z,15.00
2023-03-15T13:40:56.797Z,15.01
2023-03-15T13:43:33.185Z,15.01
2023-03-15T13:45:59.942Z,15.04
2023-03-15T13:48:27.022Z,15.06
2023-03-15T13:50:55.087Z,15.12
2023-03-15T13:53:35.646Z,15.18
2023-03-15T13:56:10.169Z,15.23
2023-03-15T13:58:38.518Z,15.28
2023-03-15T14:01:07.106Z,15.32
2023-03-15T14:03:33.652Z,15.36
2023-03-15T14:06:00.052Z,15.38
2023-03-15T14:08:31.430Z,15.41
2023-03-15T14:10:58.979Z,15.46
2023-03-15T14:13:26.678Z,15.46
2023-03-15T14:15:58.057Z,15.48
2023-03-15T14:18:44.603Z,15.49
2023-03-15T14:21:14.904Z,15.49
2023-03-15T14:23:45.713Z,15.52
2023-03-15T14:26:19.719Z,15.54
2023-03-15T14:28:53.265Z,15.55
2023-03-15T14:31:23.253Z,15.55
2023-03-15T14:34:00.209Z,15.55
2023-03-15T14:36:31.673Z,15.55
2023-03-15T14:38:58.481Z,15.53
2023-03-15T14:41:28.228Z,15.51
2023-03-15T14:43:54.812Z,15.50
2023-03-15T14:46:21.742Z,15.48
2023-03-15T14:48:49.336Z,15.45
2023-03-15T14:51:17.075Z,15.42
2023-03-15T14:53:43.698Z,15.41
2023-03-15T14:56:11.140Z,15.38
2023-03-15T14:58:37.497Z,15.36
2023-03-15T15:01:06.601Z,15.33
2023-03-15T15:03:35.586Z,15.30
2023-03-15T15:06:02.585Z,15.28
2023-03-15T15:08:31.042Z,15.26
2023-03-15T15:10:58.617Z,15.24
2023-03-15T15:13:26.524Z,15.23
2023-03-15T15:15:56.892Z,15.22
2023-03-15T15:18:24.698Z,15.23
2023-03-15T15:20:54.232Z,15.22
2023-03-15T15:23:22.215Z,15.23
2023-03-15T15:25:50.674Z,15.22
2023-03-15T15:28:33.277Z,15.23
2023-03-15T15:31:00.754Z,15.20
2023-03-15T15:33:27.152Z,15.16
2023-03-15T15:35:54.572Z,15.14
2023-03-15T15:38:33.346Z,15.10
2023-03-15T15:41:01.010Z,15.03
2023-03-15T15:43:27.519Z,14.98
2023-03-15T15:45:54.306Z,14.90
2023-03-15T15:48:20.681Z,14.85
2023-03-15T15:50:47.475Z,14.81
2023-03-15T15:53:17.024Z,14.77
2023-03-15T15:55:44.242Z,14.72
2023-03-15T15:58:12.447Z,14.71
2023-03-15T16:00:38.749Z,14.70
2023-03-15T16:03:15.115Z,14.68
2023-03-15T16:05:43.950Z,14.70
2023-03-15T16:08:20.063Z,14.70
2023-03-15T16:10:46.347Z,14.70
2023-03-15T16:13:13.678Z,14.69
2023-03-15T16:15:42.462Z,14.70
2023-03-15T16:18:12.470Z,14.68
2023-03-15T16:20:40.406Z,14.67
2023-03-15T16:23:07.086Z,14.63
2023-03-15T16:25:35.686Z,14.60
2023-03-15T16:28:03.317Z,14.57
2023-03-15T16:30:30.972Z,14.56
2023-03-15T16:32:57.454Z,14.53
2023-03-15T16:35:35.084Z,14.52
2023-03-15T16:38:02.180Z,14.51
2023-03-15T16:40:30.797Z,14.48
2023-03-15T16:42:57.487Z,14.46
2023-03-15T16:45:24.580Z,14.44
2023-03-15T16:47:51.251Z,14.40
2023-03-15T16:50:18.344Z,14.39
2023-03-15T16:52:46.097Z,14.35
2023-03-15T16:55:18.018Z,14.33
2023-03-15T16:57:44.348Z,14.30
2023-03-15T17:00:17.702Z,14.29
2023-03-15T17:02:47.999Z,14.26
2023-03-15T17:05:19.881Z,14.24
2023-03-15T17:07:50.302Z,14.21
2023-03-15T17:10:25.835Z,14.19
2023-03-15T17:12:53.018Z,14.16
2023-03-15T17:15:21.983Z,14.12
2023-03-15T17:17:49.813Z,14.07
2023-03-15T17:20:21.829Z,14.04
2023-03-15T17:22:51.786Z,13.98
2023-03-15T17:25:19.211Z,13.92
2023-03-15T17:27:47.126Z,13.86
2023-03-15T17:30:33.772Z,13.81
2023-03-15T17:33:00.999Z,13.73
2023-03-15T17:35:31.699Z,13.67
2023-03-15T17:37:57.970Z,13.61
2023-03-15T17:40:26.610Z,13.55
2023-03-15T17:42:54.319Z,13.49
2023-03-15T17:45:28.112Z,13.44
2023-03-15T17:47:54.456Z,13.37
2023-03-15T17:50:22.158Z,13.32
2023-03-15T17:52:51.279Z,13.26
2023-03-15T17:55:18.692Z,13.21
2023-03-15T17:57:54.030Z,13.14
2023-03-15T18:00:22.146Z,13.08
2023-03-15T18:02:55.661Z,13.02
2023-03-15T18:05:25.973Z,12.95
2023-03-15T18:08:00.502Z,12.89
2023-03-15T18:10:31.511Z,12.83
2023-03-15T18:12:59.292Z,12.77
2023-03-15T18:15:25.599Z,12.72
2023-03-15T18:17:52.104Z,12.66
2023-03-15T18:20:19.106Z,12.59
2023-03-15T18:22:45.389Z,12.55
2023-03-15T18:25:25.438Z,12.49
2023-03-15T18:27:52.237Z,12.42
2023-03-15T18:30:20.697Z,12.38
2023-03-15T18:32:48.432Z,12.29
2023-03-15T18:35:23.189Z,12.24
2023-03-15T18:37:49.488Z,12.18
2023-03-15T18:40:18.548Z,12.11
2023-03-15T18:42:45.494Z,12.06
2023-03-15T18:45:18.433Z,12.00
2023-03-15T18:47:45.332Z,11.94
2023-03-15T18:50:12.455Z,11.88
2023-03-15T18:52:39.215Z,11.82
2023-03-15T18:55:07.705Z,11.78
2023-03-15T18:57:34.925Z,11.72
2023-03-15T19:00:01.388Z,11.68
2023-03-15T19:02:27.846Z,11.64
2023-03-15T19:04:57.153Z,11.58
2023-03-15T19:07:24.415Z,11.55
2023-03-15T19:09:52.557Z,11.49
2023-03-15T19:12:18.879Z,11.46
2023-03-15T19:14:46.690Z,11.41
2023-03-15T19:17:13.525Z,11.35
2023-03-15T19:19:40.027Z,11.29
2023-03-15T19:22:06.371Z,11.26
2023-03-15T19:24:33.294Z,11.23
2023-03-15T19:26:59.867Z,11.18
2023-03-15T19:29:27.638Z,11.14
2023-03-15T19:31:55.288Z,11.10
2023-03-15T19:34:22.496Z,11.05
2023-03-15T19:36:48.997Z,11.01
2023-03-15T19:39:15.278Z,10.98
2023-03-15T19:41:42.888Z,10.95
2023-03-15T19:44:09.151Z,10.92
2023-03-15T19:46:35.462Z,10.88
2023-03-15T19:49:02.281Z,10.83
2023-03-15T19:51:28.931Z,10.79
2023-03-15T19:53:56.425Z,10.75
2023-03-15T19:56:23.077Z,10.72
2023-03-15T19:58:49.584Z,10.69
2023-03-15T20:01:16.372Z,10.66
2023-03-15T20:03:42.923Z,10.63
2023-03-15T20:06:12.533Z,10.61
2023-03-15T20:08:40.317Z,10.59
2023-03-15T20:11:06.941Z,10.57
2023-03-15T20:13:37.222Z,10.54
2023-03-15T20:16:06.559Z,10.53
2023-03-15T20:18:32.942Z,10.51
2023-03-15T20:20:59.689Z,10.48
2023-03-15T20:23:26.130Z,10.45
2023-03-15T20:25:52.617Z,10.44
2023-03-15T20:28:19.305Z,10.43
2023-03-15T20:30:45.591Z,10.40
2023-03-15T20:33:11.989Z,10.40
2023-03-15T20:35:38.403Z,10.38
2023-03-15T20:38:08.061Z,10.37
2023-03-15T20:40:35.720Z,10.36
2023-03-15T20:43:02.657Z,10.35
2023-03-15T20:45:29.066Z,10.35
2023-03-15T20:47:55.448Z,10.35
2023-03-15T20:50:22.198Z,10.34
2023-03-15T20:52:50.962Z,10.36
2023-03-15T20:55:17.454Z,10.34
2023-03-15T20:57:43.887Z,10.33
2023-03-15T21:00:17.146Z,10.33
2023-03-15T21:02:44.063Z,10.33
2023-03-15T21:05:10.684Z,10.33
2023-03-15T21:07:37.065Z,10.34
2023-03-15T21:10:03.629Z,10.35
2023-03-15T21:12:30.613Z,10.36
2023-03-15T21:14:56.949Z,10.39
2023-03-15T21:17:23.264Z,10.41
2023-03-15T21:19:49.756Z,10.42
2023-03-15T21:22:16.074Z,10.43
2023-03-15T21:24:54.702Z,10.44
2023-03-15T21:27:22.601Z,10.46
2023-03-15T21:29:48.821Z,10.48
2023-03-15T21:32:15.102Z,10.50
2023-03-15T21:34:41.373Z,10.51
2023-03-15T21:37:07.623Z,10.51
2023-03-15T21:39:34.334Z,10.53
2023-03-15T21:42:00.813Z,10.52
2023-03-15T21:44:27.143Z,10.54
2023-03-15T21:46:53.774Z,10.53
2023-03-15T21:49:20.104Z,10.52
2023-03-15T21:51:46.392Z,10.52
2023-03-15T21:54:14.410Z,10.51
2023-03-15T21:56:41.416Z,10.50
2023-03-15T21:59:07.742Z,10.50
2023-03-15T22:01:34.266Z,10.50
2023-03-15T22:04:00.793Z,10.50
2023-03-15T22:06:27.430Z,10.49
2023-03-15T22:08:53.842Z,10.48
2023-03-15T22:11:22.350Z,10.47
2023-03-15T22:13:48.770Z,10.47
2023-03-15T22:16:15.086Z,10.45
2023-03-15T22:18:41.497Z,10.43
2023-03-15T22:21:07.795Z,10.42
2023-03-15T22:23:36.522Z,10.40
2023-03-15T22:26:02.744Z,10.38
2023-03-15T22:28:31.127Z,10.36
2023-03-15T22:30:57.779Z,10.34
2023-03-15T22:33:24.368Z,10.30
2023-03-15T22:35:55.512Z,10.28
2023-03-15T22:38:22.770Z,10.26
2023-03-15T22:40:49.040Z,10.24
2023-03-15T22:43:15.421Z,10.23
2023-03-15T22:45:41.706Z,10.20
2023-03-15T22:48:10.525Z,10.17
2023-03-15T22:50:36.807Z,10.15
2023-03-15T22:53:03.285Z,10.11
2023-03-15T22:55:30.631Z,10.08
2023-03-15T22:57:57.149Z,10.03
2023-03-15T23:00:26.502Z,10.02
2023-03-15T23:02:53.074Z,9.98
2023-03-15T23:05:19.833Z,9.96
2023-03-15T23:07:46.246Z,9.93
2023-03-15T23:10:13.438Z,9.89
2023-03-15T23:12:39.738Z,9.88
2023-03-15T23:15:06.540Z,9.84
2023-03-15T23:17:32.873Z,9.81
2023-03-15T23:19:59.267Z,9.78
2023-03-15T23:22:26.031Z,9.75
2023-03-15T23:24:52.786Z,9.71
2023-03-15T23:27:19.073Z,9.68
2023-03-15T23:29:54.043Z,9.65
2023-03-15T23:32:21.388Z,9.61
2023-03-15T23:35:06.613Z,9.58
2023-03-15T23:37:33.345Z,9.52
2023-03-15T23:39:59.675Z,9.48
2023-03-15T23:42:27.470Z,9.43
2023-03-15T23:44:56.905Z,9.39
2023-03-15T23:47:23.987Z,9.36
2023-03-15T23:49:51.116Z,9.32
2023-03-15T23:52:25.464Z,9.29
2023-03-15T23:54:53.745Z,9.25
2023-03-15T23:57:20.780Z,9.23
2023-03-15T23:59:47.368Z,9.19
